Погода Тазана неделю

Фес, Марокко

21 - 27 июля
  • 21июля
    Сегодня
    +22°
    +38°
    Ясно и безоблачно
    ВремяПогодаТемператураВлажностьДавлениеВетер, м/сВероятность осадков
    01:00Ясно и безоблачно+25°C44 %712 мм5.2 м/с2 %
    04:00Ясно и безоблачно+23°C51 %711 мм4.4 м/с2 %
    07:00Ясно и безоблачно+22°C59 %711 мм3.6 м/с2 %
    10:00Ясно и безоблачно+28°C38 %712 мм3.7 м/с2 %
    13:00Ясно и безоблачно+35°C18 %712 мм5.1 м/с2 %
    16:00Ясно и безоблачно+37°C14 %711 мм5.8 м/с2 %
    19:00Ясно и безоблачно+35°C17 %711 мм5.1 м/с2 %
    22:00Ясно и безоблачно+29°C24 %712 мм2.2 м/с2 %
  • 22июля
    Понедельник
    +25°
    +41°
    Ясно и безоблачно
    ВремяПогодаТемператураВлажностьДавлениеВетер, м/сВероятность осадков
    01:00Ясно и безоблачно+26°C34 %712 мм1.9 м/с2 %
    04:00Ясно и безоблачно+24°C41 %711 мм0.7 м/с2 %
    07:00Ясно и безоблачно+23°C41 %712 мм1.6 м/с2 %
    10:00Ясно и безоблачно+31°C24 %713 мм3.9 м/с2 %
    13:00Ясно и безоблачно+37°C17 %713 мм3.7 м/с2 %
    16:00Ясно и безоблачно+40°C12 %712 мм3.9 м/с2 %
    19:00Ясно и безоблачно+38°C17 %712 мм4.3 м/с2 %
    22:00Ясно и безоблачно+31°C28 %714 мм3.8 м/с2 %
  • 23июля
    Вторник
    +26°
    +42°
    Ясно и безоблачно
    ВремяПогодаТемператураВлажностьДавлениеВетер, м/сВероятность осадков
    01:00Ясно и безоблачно+28°C28 %714 мм2.2 м/с2 %
    04:00Ясно и безоблачно+26°C30 %713 мм2.7 м/с2 %
    07:00Ясно и безоблачно+25°C36 %713 мм3.2 м/с2 %
    10:00Ясно и безоблачно+32°C28 %714 мм4.4 м/с2 %
    13:00Ясно и безоблачно+38°C20 %714 мм3.9 м/с2 %
    16:00Небольшая облачность+40°C16 %713 мм3.7 м/с4 %
    19:00Облачно с прояснениями+39°C22 %713 мм4.5 м/с3 %
    22:00Практически безоблачно+32°C33 %715 мм3.5 м/с2 %
  • 24июля
    Среда
    +25°
    +44°
    Ясно и безоблачно
    ВремяПогодаТемператураВлажностьДавлениеВетер, м/сВероятность осадков
    01:00Практически безоблачно+29°C39 %714 мм1.1 м/с2 %
    04:00Облачно с прояснениями+28°C41 %713 мм1.4 м/с2 %
    07:00Практически безоблачно+27°C44 %713 мм1.5 м/с2 %
    10:00Небольшая облачность+34°C25 %714 мм2.6 м/с2 %
    13:00Ясно и безоблачно+41°C16 %713 мм1.3 м/с2 %
    16:00Ясно и безоблачно+43°C7 %712 мм2.0 м/с2 %
    19:00Ясно и безоблачно+42°C11 %712 мм0.8 м/с2 %
    22:00Ясно и безоблачно+34°C23 %712 мм1.8 м/с2 %
  • 25июля
    Четверг
    +22°
    +42°
    Ясно и безоблачно
    ВремяПогодаТемператураВлажностьДавлениеВетер, м/сВероятность осадков
    01:00Ясно и безоблачно+30°C24 %712 мм2.1 м/с2 %
    04:00Ясно и безоблачно+27°C27 %710 мм2.0 м/с2 %
    07:00Ясно и безоблачно+26°C31 %711 мм1.7 м/с2 %
    10:00Ясно и безоблачно+34°C17 %712 мм2.8 м/с2 %
    13:00Ясно и безоблачно+40°C6 %711 мм5.2 м/с2 %
    16:00Ясно и безоблачно+42°C6 %710 мм5.6 м/с2 %
    19:00Ясно и безоблачно+40°C8 %710 мм5.1 м/с2 %
    22:00Ясно и безоблачно+32°C18 %711 мм1.7 м/с2 %
Мы используем cookies
Соглашаюсь